createdAt,value
2023-02-05T00:01:49.822Z,103644.88
2023-02-05T00:06:53.737Z,103639.00
2023-02-05T00:11:59.462Z,103633.97
2023-02-05T00:17:03.228Z,103626.41
2023-02-05T00:22:07.044Z,103618.38
2023-02-05T00:27:12.162Z,103607.75
2023-02-05T00:32:15.953Z,103604.88
2023-02-05T00:37:19.806Z,103599.75
2023-02-05T00:42:25.001Z,103594.12
2023-02-05T00:47:28.723Z,103576.25
2023-02-05T00:52:32.544Z,103579.41
2023-02-05T00:57:37.953Z,103581.09
2023-02-05T01:02:44.310Z,103589.56
2023-02-05T01:07:48.180Z,103588.81
2023-02-05T01:12:53.604Z,103576.84
2023-02-05T01:17:58.591Z,103581.69
2023-02-05T01:23:02.296Z,103588.66
2023-02-05T01:28:07.772Z,103605.34
2023-02-05T01:33:11.521Z,103604.28
2023-02-05T01:38:15.901Z,103594.69
2023-02-05T01:43:21.199Z,103597.44
2023-02-05T01:48:28.884Z,103606.84
2023-02-05T01:53:35.982Z,103611.34
2023-02-05T01:58:44.749Z,103610.47
2023-02-05T02:03:50.649Z,103604.38
2023-02-05T02:08:54.566Z,103601.34
2023-02-05T02:14:02.385Z,103590.72
2023-02-05T02:19:11.506Z,103601.03
2023-02-05T02:24:44.038Z,103599.34
2023-02-05T02:29:55.159Z,103578.63
2023-02-05T02:35:07.184Z,103573.31
2023-02-05T02:40:16.971Z,103581.03
2023-02-05T02:45:25.557Z,103570.09
2023-02-05T02:50:34.820Z,103566.03
2023-02-05T02:55:43.843Z,103554.66
2023-02-05T03:00:50.315Z,103565.28
2023-02-05T03:05:57.344Z,103541.03
2023-02-05T03:11:05.363Z,103534.81
2023-02-05T03:16:11.856Z,103501.34
2023-02-05T03:21:18.722Z,103519.19
2023-02-05T03:26:27.758Z,103531.63
2023-02-05T03:31:46.009Z,103529.78
2023-02-05T03:36:59.532Z,103540.84
2023-02-05T03:42:14.258Z,103533.44
2023-02-05T03:47:31.253Z,103546.44
2023-02-05T03:52:42.643Z,103544.78
2023-02-05T03:57:53.677Z,103540.38
2023-02-05T04:02:59.673Z,103542.22
2023-02-05T04:08:05.147Z,103547.63
2023-02-05T04:13:09.850Z,103546.13
2023-02-05T04:18:15.230Z,103548.41
2023-02-05T04:23:19.366Z,103559.28
2023-02-05T04:28:23.349Z,103559.41
2023-02-05T04:33:29.058Z,103548.53
2023-02-05T04:38:33.030Z,103552.16
2023-02-05T04:43:36.867Z,103550.78
2023-02-05T04:48:42.268Z,103558.66
2023-02-05T04:53:46.102Z,103552.91
2023-02-05T04:58:49.896Z,103558.06
2023-02-05T05:03:55.038Z,103558.50
2023-02-05T05:08:58.753Z,103557.44
2023-02-05T05:14:02.521Z,103554.87
2023-02-05T05:19:07.636Z,103551.41
2023-02-05T05:24:11.374Z,103546.69
2023-02-05T05:29:15.817Z,103547.56
2023-02-05T05:34:21.448Z,103554.09
2023-02-05T05:39:44.865Z,103560.31
2023-02-05T05:44:51.965Z,103553.47
2023-02-05T05:49:57.241Z,103560.91
2023-02-05T05:55:01.332Z,103572.09
2023-02-05T06:00:05.991Z,103568.78
2023-02-05T06:05:17.085Z,103573.94
2023-02-05T06:10:21.107Z,103580.59
2023-02-05T06:15:28.237Z,103576.78
2023-02-05T06:20:33.321Z,103583.28
2023-02-05T06:25:39.244Z,103580.06
2023-02-05T06:30:43.076Z,103591.63
2023-02-05T06:35:48.305Z,103595.28
2023-02-05T06:40:52.011Z,103592.41
2023-02-05T06:45:56.663Z,103598.84
2023-02-05T06:51:01.735Z,103619.81
2023-02-05T06:56:06.340Z,103633.53
2023-02-05T07:01:10.047Z,103650.00
2023-02-05T07:06:15.281Z,103666.00
2023-02-05T07:11:19.120Z,103676.88
2023-02-05T07:16:23.068Z,103684.34
2023-02-05T07:21:28.302Z,103700.44
2023-02-05T07:26:32.070Z,103712.34
2023-02-05T07:31:36.454Z,103713.28
2023-02-05T07:36:41.626Z,103726.53
2023-02-05T07:41:45.410Z,103735.00
2023-02-05T07:46:51.813Z,103753.47
2023-02-05T07:51:57.042Z,103747.00
2023-02-05T07:57:01.121Z,103758.78
2023-02-05T08:02:05.292Z,103769.47
2023-02-05T08:07:12.334Z,103788.31
2023-02-05T08:12:16.172Z,103774.88
2023-02-05T08:17:19.985Z,103781.06
2023-02-05T08:22:25.095Z,103785.47
2023-02-05T08:27:30.090Z,103780.84
2023-02-05T08:32:34.564Z,103796.34
2023-02-05T08:37:39.660Z,103806.78
2023-02-05T08:42:43.420Z,103809.09
2023-02-05T08:47:47.394Z,103816.16
2023-02-05T08:52:52.706Z,103822.87
2023-02-05T08:57:56.543Z,103830.91
2023-02-05T09:03:00.332Z,103819.06
2023-02-05T09:08:05.540Z,103818.97
2023-02-05T09:13:09.498Z,103826.53
2023-02-05T09:18:13.447Z,103838.62
2023-02-05T09:23:21.321Z,103836.91
2023-02-05T09:28:25.104Z,103823.28
2023-02-05T09:33:28.863Z,103836.94
2023-02-05T09:38:34.088Z,103841.09
2023-02-05T09:43:49.530Z,103845.47
2023-02-05T09:49:00.887Z,103834.94
2023-02-05T09:54:19.610Z,103840.81
2023-02-05T09:59:26.444Z,103847.53
2023-02-05T10:04:30.826Z,103823.13
2023-02-05T10:09:57.697Z,103831.19
2023-02-05T10:15:14.908Z,103818.66
2023-02-05T10:20:35.843Z,103819.66
2023-02-05T10:26:02.104Z,103829.59
2023-02-05T10:31:14.054Z,103837.34
2023-02-05T10:36:22.520Z,103827.53
2023-02-05T10:41:30.571Z,103832.81
2023-02-05T10:46:36.581Z,103846.87
2023-02-05T10:51:42.813Z,103852.09
2023-02-05T10:56:49.133Z,103831.97
2023-02-05T11:01:53.384Z,103828.06
2023-02-05T11:06:57.577Z,103846.91
2023-02-05T11:12:05.140Z,103844.56
2023-02-05T11:17:19.054Z,103849.66
2023-02-05T11:22:28.337Z,103870.44
2023-02-05T11:27:34.769Z,103854.69
2023-02-05T11:32:39.584Z,103844.13
2023-02-05T11:37:43.673Z,103859.00
2023-02-05T11:42:59.923Z,103851.16
2023-02-05T11:48:07.445Z,103849.06
2023-02-05T11:53:17.334Z,103836.78
2023-02-05T11:58:36.122Z,103837.25
2023-02-05T12:03:40.185Z,103816.25
2023-02-05T12:08:48.457Z,103811.44
2023-02-05T12:13:58.315Z,103824.56
2023-02-05T12:19:13.501Z,103836.84
2023-02-05T12:24:48.529Z,103817.97
2023-02-05T12:30:04.938Z,103824.97
2023-02-05T12:35:34.613Z,103837.41
2023-02-05T12:40:52.646Z,103841.94
2023-02-05T12:46:06.796Z,103836.50
2023-02-05T12:51:26.405Z,103849.25
2023-02-05T12:56:50.567Z,103846.50
2023-02-05T13:02:00.314Z,103838.50
2023-02-05T13:07:12.730Z,103835.31
2023-02-05T13:12:19.515Z,103834.25
2023-02-05T13:17:27.931Z,103829.44
2023-02-05T13:22:52.856Z,103830.94
2023-02-05T13:28:19.463Z,103834.69
2023-02-05T13:33:24.581Z,103842.19
2023-02-05T13:38:48.275Z,103838.69
2023-02-05T13:44:23.249Z,103846.97
2023-02-05T13:49:49.561Z,103838.16
2023-02-05T13:55:16.673Z,103856.34
2023-02-05T14:00:21.118Z,103868.62
2023-02-05T14:05:35.541Z,103877.63
2023-02-05T14:10:44.873Z,103879.81
2023-02-05T14:15:49.435Z,103866.97
2023-02-05T14:20:54.604Z,103873.66
2023-02-05T14:26:13.614Z,103876.03
2023-02-05T14:31:57.371Z,103869.66
2023-02-05T14:37:02.515Z,103879.53
2023-02-05T14:42:09.007Z,103871.53
2023-02-05T14:47:22.317Z,103880.56
2023-02-05T14:52:34.240Z,103884.44
2023-02-05T14:57:43.428Z,103873.22
2023-02-05T15:03:00.813Z,103876.84
2023-02-05T15:08:16.397Z,103881.31
2023-02-05T15:13:21.104Z,103908.00
2023-02-05T15:18:27.978Z,103911.66
2023-02-05T15:23:39.205Z,103913.09
2023-02-05T15:28:50.769Z,103920.22
2023-02-05T15:34:01.016Z,103917.94
2023-02-05T15:39:19.782Z,103922.94
2023-02-05T15:44:28.095Z,103923.41
2023-02-05T15:49:33.866Z,103917.59
2023-02-05T15:54:39.226Z,103930.31
2023-02-05T15:59:43.043Z,103945.13
2023-02-05T16:04:53.717Z,103956.59
2023-02-05T16:10:00.664Z,103969.44
2023-02-05T16:15:07.069Z,103973.75
2023-02-05T16:20:23.583Z,103970.50
2023-02-05T16:25:41.342Z,103972.69
2023-02-05T16:30:47.622Z,103993.25
2023-02-05T16:35:52.242Z,103985.41
2023-02-05T16:41:00.186Z,103984.81
2023-02-05T16:46:26.504Z,103988.50
2023-02-05T16:51:39.511Z,104005.34
2023-02-05T16:56:51.731Z,104002.69
2023-02-05T17:01:56.200Z,104015.66
2023-02-05T17:07:02.300Z,104032.06
2023-02-05T17:12:38.519Z,104024.50
2023-02-05T17:17:49.498Z,104023.59
2023-02-05T17:23:10.694Z,104035.59
2023-02-05T17:28:19.642Z,104025.19
2023-02-05T17:33:25.344Z,104033.50
2023-02-05T17:38:29.188Z,104044.56
2023-02-05T17:43:34.422Z,104051.78
2023-02-05T17:48:40.033Z,104050.31
2023-02-05T17:53:43.968Z,104046.19
2023-02-05T17:58:50.653Z,104060.56
2023-02-05T18:03:54.534Z,104060.25
2023-02-05T18:08:58.473Z,104060.81
2023-02-05T18:14:03.715Z,104066.91
2023-02-05T18:19:07.545Z,104076.47
2023-02-05T18:24:11.457Z,104080.53
2023-02-05T18:29:16.652Z,104080.72
2023-02-05T18:34:20.508Z,104082.75
2023-02-05T18:39:28.426Z,104093.03
2023-02-05T18:44:33.753Z,104089.03
2023-02-05T18:49:38.014Z,104103.91
2023-02-05T18:54:44.044Z,104100.28
2023-02-05T18:59:49.907Z,104098.09
2023-02-05T19:04:56.484Z,104099.75
2023-02-05T19:10:01.636Z,104090.63
2023-02-05T19:15:07.666Z,104102.38
2023-02-05T19:20:12.479Z,104108.63
2023-02-05T19:25:20.254Z,104107.72
2023-02-05T19:30:25.896Z,104115.78
2023-02-05T19:35:30.024Z,104110.47
2023-02-05T19:40:36.180Z,104118.91
2023-02-05T19:45:42.372Z,104116.00
2023-02-05T19:50:46.182Z,104119.62
2023-02-05T19:55:50.446Z,104134.50
2023-02-05T20:00:55.667Z,104139.81
2023-02-05T20:06:04.725Z,104117.09
2023-02-05T20:11:09.028Z,104122.03
2023-02-05T20:16:16.513Z,104159.94
2023-02-05T20:21:20.514Z,104152.59
2023-02-05T20:26:25.666Z,104167.81
2023-02-05T20:31:41.660Z,104161.41
2023-02-05T20:36:47.300Z,104160.50
2023-02-05T20:41:52.931Z,104153.91
2023-02-05T20:46:58.277Z,104162.72
2023-02-05T20:52:02.184Z,104162.31
2023-02-05T20:57:06.333Z,104174.59
2023-02-05T21:02:13.687Z,104162.69
2023-02-05T21:07:17.506Z,104174.06
2023-02-05T21:12:21.317Z,104188.66
2023-02-05T21:17:26.517Z,104197.66
2023-02-05T21:22:30.300Z,104203.50
2023-02-05T21:27:34.108Z,104202.56
2023-02-05T21:32:39.393Z,104207.84
2023-02-05T21:37:45.533Z,104204.72
2023-02-05T21:42:49.509Z,104199.41
2023-02-05T21:47:54.746Z,104189.34
2023-02-05T21:52:58.597Z,104191.12
2023-02-05T21:58:02.488Z,104182.87
2023-02-05T22:03:07.628Z,104190.94
2023-02-05T22:08:12.018Z,104185.94
2023-02-05T22:13:15.910Z,104181.34
2023-02-05T22:18:21.018Z,104187.56
2023-02-05T22:23:24.766Z,104180.94
2023-02-05T22:28:28.918Z,104186.25
2023-02-05T22:33:35.766Z,104197.19
2023-02-05T22:38:40.949Z,104197.34
2023-02-05T22:43:44.826Z,104203.53
2023-02-05T22:48:51.563Z,104203.16
2023-02-05T22:53:56.212Z,104202.75
2023-02-05T22:59:02.785Z,104188.87
2023-02-05T23:04:10.380Z,104199.44
2023-02-05T23:09:16.483Z,104211.81
2023-02-05T23:14:20.324Z,104221.28
2023-02-05T23:19:25.422Z,104220.34
2023-02-05T23:24:29.288Z,104218.12
2023-02-05T23:29:33.136Z,104214.28
2023-02-05T23:34:38.251Z,104213.47
2023-02-05T23:39:42.067Z,104210.34
2023-02-05T23:44:45.844Z,104208.31
2023-02-05T23:49:50.943Z,104209.97
2023-02-05T23:54:56.879Z,104207.72
